createdAt,value
2018-02-09T00:01:48.379Z,5.40
2018-02-09T00:04:17.144Z,5.20
2018-02-09T00:06:46.325Z,6.10
2018-02-09T00:09:15.030Z,5.10
2018-02-09T00:11:43.875Z,5.37
2018-02-09T00:14:12.478Z,6.93
2018-02-09T00:16:41.170Z,12.90
2018-02-09T00:19:09.931Z,5.67
2018-02-09T00:21:38.991Z,6.57
2018-02-09T00:24:08.628Z,6.10
2018-02-09T00:26:37.972Z,5.03
2018-02-09T00:29:11.464Z,6.10
2018-02-09T00:31:40.039Z,5.60
2018-02-09T00:34:08.760Z,5.50
2018-02-09T00:36:38.420Z,5.93
2018-02-09T00:39:07.468Z,6.00
2018-02-09T00:41:37.010Z,5.50
2018-02-09T00:44:06.311Z,8.17
2018-02-09T00:46:34.877Z,6.47
2018-02-09T00:49:03.525Z,6.70
2018-02-09T00:51:32.916Z,7.57
2018-02-09T00:54:01.524Z,5.80
2018-02-09T00:56:30.853Z,6.10
2018-02-09T00:58:59.488Z,5.70
2018-02-09T01:01:28.088Z,6.60
2018-02-09T01:03:57.478Z,5.50
2018-02-09T01:06:27.810Z,6.40
2018-02-09T01:08:56.382Z,6.70
2018-02-09T01:11:25.039Z,6.40
2018-02-09T01:13:53.659Z,6.30
2018-02-09T01:16:22.239Z,6.27
2018-02-09T01:18:50.796Z,6.33
2018-02-09T01:21:19.401Z,7.47
2018-02-09T01:23:49.394Z,4.90
2018-02-09T01:26:18.760Z,6.47
2018-02-09T01:28:48.142Z,6.03
2018-02-09T01:31:16.725Z,6.43
2018-02-09T01:33:46.085Z,5.35
2018-02-09T01:36:14.707Z,5.87
2018-02-09T01:38:44.057Z,5.20
2018-02-09T01:41:13.079Z,6.10
2018-02-09T01:43:42.482Z,6.50
2018-02-09T01:46:11.847Z,6.30
2018-02-09T01:48:41.265Z,5.37
2018-02-09T01:51:10.155Z,5.47
2018-02-09T01:53:40.278Z,5.93
2018-02-09T01:56:08.918Z,6.00
2018-02-09T01:58:38.316Z,6.87
2018-02-09T02:01:06.921Z,5.97
2018-02-09T02:03:36.647Z,6.17
2018-02-09T02:06:05.696Z,6.40
2018-02-09T02:08:34.313Z,6.30
2018-02-09T02:11:02.997Z,5.33
2018-02-09T02:13:34.672Z,6.00
2018-02-09T02:16:03.264Z,7.00
2018-02-09T02:18:31.892Z,6.67
2018-02-09T02:21:00.873Z,6.27
2018-02-09T02:23:29.471Z,6.37
2018-02-09T02:25:58.062Z,6.20
2018-02-09T02:28:26.682Z,6.10
2018-02-09T02:30:55.354Z,6.47
2018-02-09T02:33:24.073Z,5.97
2018-02-09T02:35:52.755Z,6.73
2018-02-09T02:38:21.387Z,6.33
2018-02-09T02:40:49.965Z,6.10
2018-02-09T02:43:18.639Z,6.67
2018-02-09T02:45:47.234Z,6.27
2018-02-09T02:48:15.787Z,5.60
2018-02-09T02:50:44.471Z,6.03
2018-02-09T02:53:13.083Z,7.50
2018-02-09T02:55:41.711Z,5.77
2018-02-09T02:58:10.402Z,6.30
2018-02-09T03:00:39.926Z,6.53
2018-02-09T03:03:08.620Z,7.13
2018-02-09T03:05:38.102Z,7.03
2018-02-09T03:08:07.608Z,6.33
2018-02-09T03:10:36.318Z,8.03
2018-02-09T03:13:05.370Z,8.97
2018-02-09T03:15:34.021Z,8.13
2018-02-09T03:18:02.676Z,8.60
2018-02-09T03:20:31.393Z,7.27
2018-02-09T03:23:00.455Z,7.27
2018-02-09T03:25:29.078Z,7.40
2018-02-09T03:27:58.703Z,7.90
2018-02-09T03:30:27.375Z,6.90
2018-02-09T03:32:55.994Z,8.40
2018-02-09T03:35:24.900Z,7.60
2018-02-09T03:37:53.554Z,6.77
2018-02-09T03:40:22.181Z,8.57
2018-02-09T03:42:50.792Z,7.80
2018-02-09T03:45:19.365Z,7.77
2018-02-09T03:47:47.997Z,7.10
2018-02-09T03:50:16.677Z,8.23
2018-02-09T03:52:45.254Z,7.57
2018-02-09T03:55:14.708Z,8.37
2018-02-09T03:57:44.422Z,6.33
2018-02-09T04:00:13.267Z,7.87
2018-02-09T04:02:42.401Z,7.67
2018-02-09T04:05:12.114Z,7.90
2018-02-09T04:07:41.002Z,8.03
2018-02-09T04:10:10.098Z,7.60
2018-02-09T04:12:39.000Z,7.90
2018-02-09T04:15:07.593Z,6.80
2018-02-09T04:17:36.212Z,7.57
2018-02-09T04:20:04.844Z,7.60
2018-02-09T04:22:33.542Z,6.90
2018-02-09T04:25:02.178Z,7.10
2018-02-09T04:27:31.490Z,6.27
2018-02-09T04:30:00.046Z,6.87
2018-02-09T04:32:29.094Z,6.57
2018-02-09T04:34:57.779Z,5.40
2018-02-09T04:37:26.410Z,6.07
2018-02-09T04:39:54.973Z,5.93
2018-02-09T04:42:24.438Z,5.50
2018-02-09T04:44:53.391Z,5.37
2018-02-09T04:47:21.985Z,5.60
2018-02-09T04:49:51.033Z,4.57
2018-02-09T04:52:19.613Z,4.97
2018-02-09T04:54:48.238Z,5.03
2018-02-09T04:57:17.596Z,5.20
2018-02-09T04:59:46.158Z,6.23
2018-02-09T05:02:14.710Z,5.47
2018-02-09T05:04:43.338Z,6.10
2018-02-09T05:07:11.957Z,5.70
2018-02-09T05:09:40.533Z,6.07
2018-02-09T05:12:09.904Z,5.73
2018-02-09T05:14:38.477Z,5.93
2018-02-09T05:17:07.087Z,6.50
2018-02-09T05:19:35.718Z,5.50
2018-02-09T05:22:04.356Z,5.20
2018-02-09T05:24:32.989Z,6.47
2018-02-09T05:27:01.621Z,5.90
2018-02-09T05:29:31.438Z,5.87
2018-02-09T05:32:00.027Z,6.10
2018-02-09T05:34:29.054Z,7.50
2018-02-09T05:36:57.666Z,7.77
2018-02-09T05:39:26.282Z,6.80
2018-02-09T05:41:54.875Z,8.00
2018-02-09T05:44:23.898Z,7.30
2018-02-09T05:46:52.481Z,6.77
2018-02-09T05:49:21.134Z,7.53
2018-02-09T05:51:50.111Z,7.20
2018-02-09T05:54:19.114Z,7.33
2018-02-09T05:56:48.162Z,8.27
2018-02-09T05:59:16.881Z,7.47
2018-02-09T06:01:45.587Z,8.00
2018-02-09T06:04:14.275Z,7.63
2018-02-09T06:06:42.904Z,8.10
2018-02-09T06:09:12.259Z,6.97
2018-02-09T06:11:40.879Z,7.10
2018-02-09T06:14:09.502Z,9.13
2018-02-09T06:16:38.108Z,8.90
2018-02-09T06:19:06.740Z,7.53
2018-02-09T06:21:36.130Z,8.80
2018-02-09T06:24:05.776Z,9.30
2018-02-09T06:26:34.442Z,7.60
2018-02-09T06:29:03.078Z,8.00
2018-02-09T06:31:33.766Z,7.80
2018-02-09T06:34:03.742Z,7.43
2018-02-09T06:36:33.993Z,6.63
2018-02-09T06:39:03.096Z,6.10
2018-02-09T06:41:33.488Z,5.97
2018-02-09T06:44:03.285Z,6.40
2018-02-09T06:46:33.568Z,5.53
2018-02-09T06:49:02.293Z,6.17
2018-02-09T06:51:30.988Z,6.37
2018-02-09T06:54:00.370Z,5.90
2018-02-09T06:56:30.129Z,8.53
2018-02-09T06:58:58.825Z,6.90
2018-02-09T07:01:27.412Z,6.80
2018-02-09T07:03:56.811Z,6.70
2018-02-09T07:06:25.423Z,6.47
2018-02-09T07:08:54.866Z,6.10
2018-02-09T07:11:24.514Z,5.80
2018-02-09T07:13:53.254Z,6.63
2018-02-09T07:16:22.234Z,7.63
2018-02-09T07:18:51.330Z,7.20
2018-02-09T07:21:20.376Z,7.73
2018-02-09T07:23:49.022Z,5.73
2018-02-09T07:26:17.705Z,5.77
2018-02-09T07:28:46.392Z,6.20
2018-02-09T07:31:14.977Z,5.37
2018-02-09T07:33:43.682Z,5.12
2018-02-09T07:36:12.661Z,5.30
2018-02-09T07:38:42.958Z,5.53
2018-02-09T07:41:11.983Z,4.83
2018-02-09T07:43:40.988Z,4.30
2018-02-09T07:46:10.483Z,5.10
2018-02-09T07:48:39.487Z,4.47
2018-02-09T07:51:08.663Z,4.70
2018-02-09T07:53:37.613Z,4.87
2018-02-09T07:56:06.995Z,4.27
2018-02-09T07:58:36.360Z,4.60
2018-02-09T08:01:06.168Z,4.40
2018-02-09T08:03:35.976Z,4.80
2018-02-09T08:06:05.328Z,6.13
2018-02-09T08:08:35.370Z,5.77
2018-02-09T08:11:05.628Z,5.70
2018-02-09T08:13:35.234Z,5.90
2018-02-09T08:16:03.902Z,6.83
2018-02-09T08:18:33.328Z,5.60
2018-02-09T08:21:02.626Z,7.27
2018-02-09T08:23:32.130Z,5.80
2018-02-09T08:26:01.329Z,6.00
2018-02-09T08:28:31.070Z,5.70
2018-02-09T08:31:00.136Z,4.90
2018-02-09T08:33:29.126Z,5.63
2018-02-09T08:35:58.877Z,5.57
2018-02-09T08:38:28.043Z,4.87
2018-02-09T08:40:57.550Z,4.87
2018-02-09T08:43:26.155Z,4.83
2018-02-09T08:45:55.630Z,4.90
2018-02-09T08:48:24.731Z,5.57
2018-02-09T08:50:54.339Z,5.90
2018-02-09T08:53:23.942Z,6.10
2018-02-09T08:55:53.312Z,5.53
2018-02-09T08:58:22.672Z,6.70
2018-02-09T09:00:51.293Z,5.90
2018-02-09T09:03:20.641Z,5.97
2018-02-09T09:05:49.650Z,6.00
2018-02-09T09:08:18.622Z,5.93
2018-02-09T09:10:48.127Z,5.60
2018-02-09T09:13:18.145Z,4.93
2018-02-09T09:15:46.830Z,6.53
2018-02-09T09:18:15.426Z,6.30
2018-02-09T09:20:44.584Z,5.40
2018-02-09T09:23:13.209Z,5.45
2018-02-09T09:25:42.598Z,5.90
2018-02-09T09:28:12.138Z,5.87
2018-02-09T09:30:40.743Z,6.30
2018-02-09T09:33:09.694Z,7.77
2018-02-09T09:35:38.697Z,7.30
2018-02-09T09:38:07.691Z,5.03
2018-02-09T09:40:37.026Z,5.37
2018-02-09T09:43:06.020Z,6.03
2018-02-09T09:45:36.297Z,6.40
2018-02-09T09:48:06.514Z,6.67
2018-02-09T09:50:36.114Z,6.75
2018-02-09T09:53:05.723Z,6.57
2018-02-09T09:55:34.519Z,6.37
2018-02-09T09:58:03.197Z,6.73
2018-02-09T10:00:32.293Z,6.13
2018-02-09T10:03:00.936Z,6.57
2018-02-09T10:05:30.333Z,5.97
2018-02-09T10:07:59.360Z,5.70
2018-02-09T10:10:28.780Z,6.00
2018-02-09T10:12:58.120Z,6.07
2018-02-09T10:15:27.584Z,5.00
2018-02-09T10:17:56.655Z,4.87
2018-02-09T10:20:25.648Z,6.10
2018-02-09T10:22:55.016Z,6.73
2018-02-09T10:25:24.070Z,4.60
2018-02-09T10:27:52.768Z,4.73
2018-02-09T10:30:22.413Z,4.63
2018-02-09T10:32:51.819Z,4.57
2018-02-09T10:35:20.795Z,4.90
2018-02-09T10:37:50.303Z,3.80
2018-02-09T10:40:19.770Z,3.50
2018-02-09T10:42:49.277Z,5.43
2018-02-09T10:45:17.962Z,4.80
2018-02-09T10:47:47.432Z,4.10
2018-02-09T10:50:16.176Z,4.30
2018-02-09T10:52:45.764Z,3.97
2018-02-09T10:55:15.238Z,4.90
2018-02-09T10:57:44.317Z,5.33
2018-02-09T11:00:13.868Z,5.67
2018-02-09T11:02:44.084Z,5.40
2018-02-09T11:05:13.185Z,4.20
2018-02-09T11:07:42.696Z,4.50
2018-02-09T11:10:17.930Z,4.60
2018-02-09T11:12:47.232Z,4.20
2018-02-09T11:15:16.688Z,5.03
2018-02-09T11:17:47.061Z,5.27
2018-02-09T11:20:16.771Z,5.60
2018-02-09T11:22:46.282Z,4.20
2018-02-09T11:25:15.918Z,5.20
2018-02-09T11:27:44.963Z,4.13
2018-02-09T11:30:13.835Z,4.33
2018-02-09T11:32:43.237Z,6.50
2018-02-09T11:35:12.577Z,5.23
2018-02-09T11:37:41.816Z,5.13
2018-02-09T11:40:11.001Z,4.63
2018-02-09T11:42:40.665Z,4.37
2018-02-09T11:45:10.043Z,5.40
2018-02-09T11:47:38.725Z,4.28
2018-02-09T11:50:07.770Z,4.73
2018-02-09T11:52:37.273Z,4.40
2018-02-09T11:55:05.955Z,4.00
2018-02-09T11:57:35.057Z,3.67
2018-02-09T12:00:04.363Z,3.53
2018-02-09T12:02:34.071Z,3.80
2018-02-09T12:05:03.264Z,5.60
2018-02-09T12:07:32.050Z,4.60
2018-02-09T12:10:02.009Z,3.93
2018-02-09T12:12:30.617Z,4.00
2018-02-09T12:15:00.055Z,4.63
2018-02-09T12:17:28.959Z,4.63
2018-02-09T12:19:57.593Z,3.93
2018-02-09T12:22:26.681Z,5.17
2018-02-09T12:24:56.117Z,4.27
2018-02-09T12:27:25.200Z,4.37
2018-02-09T12:29:54.630Z,3.30
2018-02-09T12:32:23.599Z,4.20
2018-02-09T12:34:52.246Z,3.90
2018-02-09T12:37:21.705Z,3.93
2018-02-09T12:39:50.396Z,4.83
2018-02-09T12:42:19.417Z,4.50
2018-02-09T12:44:49.566Z,3.85
2018-02-09T12:47:18.570Z,4.57
2018-02-09T12:49:47.294Z,3.80
2018-02-09T12:52:15.939Z,4.27
2018-02-09T12:54:44.573Z,4.37
2018-02-09T12:57:13.360Z,4.17
2018-02-09T12:59:42.226Z,5.33
2018-02-09T13:02:11.251Z,5.30
2018-02-09T13:04:40.514Z,5.40
2018-02-09T13:07:10.083Z,6.40
2018-02-09T13:09:39.247Z,6.40
2018-02-09T13:12:08.702Z,6.20
2018-02-09T13:14:49.377Z,6.60
2018-02-09T13:17:18.861Z,7.10
2018-02-09T13:19:47.579Z,6.47
2018-02-09T13:27:57.140Z,6.27
2018-02-09T13:30:26.837Z,6.37
2018-02-09T13:33:07.542Z,6.33
2018-02-09T13:35:36.918Z,6.17
2018-02-09T13:38:06.267Z,5.50
2018-02-09T13:40:35.768Z,6.23
2018-02-09T13:43:04.748Z,5.93
2018-02-09T13:45:34.114Z,5.87
2018-02-09T13:48:03.256Z,6.47
2018-02-09T13:50:32.040Z,7.50
2018-02-09T13:53:01.422Z,6.33
2018-02-09T13:55:30.830Z,5.60
2018-02-09T13:57:59.521Z,5.97
2018-02-09T14:00:28.338Z,5.60
2018-02-09T14:02:56.997Z,5.97
2018-02-09T14:05:26.144Z,4.93
2018-02-09T14:07:54.797Z,6.20
2018-02-09T14:10:24.183Z,5.03
2018-02-09T14:12:53.603Z,5.40
2018-02-09T14:15:22.696Z,5.70
2018-02-09T14:17:51.798Z,6.20
2018-02-09T14:20:21.189Z,5.83
2018-02-09T14:22:50.501Z,6.33
2018-02-09T14:25:19.526Z,5.60
2018-02-09T14:27:49.616Z,4.90
2018-02-09T14:30:19.370Z,5.90
2018-02-09T14:32:48.406Z,5.00
2018-02-09T14:35:17.414Z,7.40
2018-02-09T14:37:46.455Z,5.90
2018-02-09T14:40:15.080Z,8.70
2018-02-09T14:42:44.437Z,5.10
2018-02-09T14:45:13.088Z,4.10
2018-02-09T14:47:42.683Z,5.17
2018-02-09T14:50:12.103Z,5.10
2018-02-09T14:52:40.756Z,4.50
2018-02-09T14:55:10.135Z,5.03
2018-02-09T14:57:39.169Z,4.90
2018-02-09T15:00:07.862Z,4.90
2018-02-09T15:02:36.908Z,6.07
2018-02-09T15:05:06.268Z,5.27
2018-02-09T15:07:35.671Z,5.17
2018-02-09T15:10:05.092Z,4.93
2018-02-09T15:12:34.160Z,5.07
2018-02-09T15:15:03.256Z,4.47
2018-02-09T15:17:32.635Z,5.30
2018-02-09T15:20:02.014Z,4.40
2018-02-09T15:22:31.414Z,3.43
2018-02-09T15:25:00.456Z,3.30
2018-02-09T15:27:30.164Z,2.67
2018-02-09T15:29:58.850Z,3.03
2018-02-09T15:32:28.359Z,2.40
2018-02-09T15:34:57.745Z,2.53
2018-02-09T15:37:26.387Z,2.60
2018-02-09T15:39:55.427Z,2.47
2018-02-09T15:42:24.801Z,1.80
2018-02-09T15:44:54.566Z,2.53
2018-02-09T15:47:23.934Z,2.73
2018-02-09T15:49:53.309Z,2.90
2018-02-09T15:52:23.445Z,2.70
2018-02-09T15:54:52.834Z,2.70
2018-02-09T15:57:21.848Z,2.47
2018-02-09T15:59:51.272Z,2.80
2018-02-09T16:02:20.662Z,2.70
2018-02-09T16:04:50.078Z,3.07
2018-02-09T16:07:18.712Z,2.87
2018-02-09T16:09:48.834Z,6.23
2018-02-09T16:12:18.229Z,2.93
2018-02-09T16:14:47.641Z,2.80
2018-02-09T16:17:17.044Z,3.30
2018-02-09T16:19:46.816Z,3.17
2018-02-09T16:22:15.473Z,2.90
2018-02-09T16:24:44.609Z,2.93
2018-02-09T16:27:13.704Z,3.00
2018-02-09T16:29:42.728Z,3.03
2018-02-09T16:32:11.798Z,2.90
2018-02-09T16:34:41.189Z,2.50
2018-02-09T16:37:10.545Z,3.07
2018-02-09T16:39:40.081Z,2.70
2018-02-09T16:42:09.153Z,2.80
2018-02-09T16:44:38.271Z,2.73
2018-02-09T16:47:07.317Z,2.50
2018-02-09T16:49:35.999Z,3.20
2018-02-09T16:52:05.361Z,3.10
2018-02-09T16:54:34.861Z,3.73
2018-02-09T16:57:04.527Z,3.30
2018-02-09T16:59:33.580Z,3.63
2018-02-09T17:02:02.184Z,3.57
2018-02-09T17:04:31.703Z,4.00
2018-02-09T17:07:01.126Z,2.73
2018-02-09T17:09:30.181Z,3.07
2018-02-09T17:11:58.897Z,3.73
2018-02-09T17:14:28.674Z,2.83
2018-02-09T17:16:58.072Z,2.63
2018-02-09T17:19:27.154Z,3.20
2018-02-09T17:21:56.602Z,2.90
2018-02-09T17:24:26.039Z,2.90
2018-02-09T17:26:55.143Z,3.37
2018-02-09T17:29:24.249Z,3.27
2018-02-09T17:31:53.602Z,2.83
2018-02-09T17:34:22.918Z,2.53
2018-02-09T17:36:52.285Z,3.10
2018-02-09T17:39:22.409Z,3.80
2018-02-09T17:41:51.405Z,3.20
2018-02-09T17:44:20.759Z,3.30
2018-02-09T17:46:49.969Z,3.47
2018-02-09T17:49:18.587Z,3.10
2018-02-09T17:51:47.754Z,3.53
2018-02-09T17:54:17.497Z,6.50
2018-02-09T17:56:47.375Z,3.03
2018-02-09T17:59:16.880Z,3.33
2018-02-09T18:01:46.793Z,3.30
2018-02-09T18:04:16.148Z,3.47
2018-02-09T18:06:47.089Z,3.97
2018-02-09T18:09:16.887Z,4.10
2018-02-09T18:11:46.965Z,3.80
2018-02-09T18:14:16.798Z,3.50
2018-02-09T18:16:47.511Z,4.17
2018-02-09T18:19:16.560Z,3.70
2018-02-09T18:21:45.231Z,3.30
2018-02-09T18:24:14.674Z,3.87
2018-02-09T18:26:44.099Z,4.13
2018-02-09T18:29:13.475Z,4.70
2018-02-09T18:31:43.008Z,4.00
2018-02-09T18:34:12.428Z,3.80
2018-02-09T18:36:41.398Z,3.93
2018-02-09T18:39:10.802Z,3.23
2018-02-09T18:41:39.598Z,4.03
2018-02-09T18:44:09.485Z,3.60
2018-02-09T18:46:38.885Z,4.60
2018-02-09T18:49:08.374Z,4.30
2018-02-09T18:51:37.838Z,3.30
2018-02-09T18:54:07.261Z,5.33
2018-02-09T18:56:36.426Z,4.77
2018-02-09T18:59:05.213Z,4.53
2018-02-09T19:01:34.320Z,5.20
2018-02-09T19:04:04.334Z,4.57
2018-02-09T19:06:40.415Z,3.73
2018-02-09T19:09:10.334Z,4.53
2018-02-09T19:11:39.912Z,4.30
2018-02-09T19:24:38.121Z,4.40
2018-02-09T19:47:40.795Z,4.63
2018-02-09T19:50:10.287Z,4.63
2018-02-09T19:52:40.639Z,4.20
2018-02-09T19:55:10.060Z,5.47
2018-02-09T19:57:39.148Z,5.83
2018-02-09T20:00:09.254Z,5.30
2018-02-09T20:02:39.269Z,4.70
2018-02-09T20:05:08.407Z,6.60
2018-02-09T20:07:39.235Z,4.83
2018-02-09T20:10:09.476Z,5.17
2018-02-09T20:12:38.988Z,5.67
2018-02-09T20:15:08.550Z,10.37
2018-02-09T20:17:40.953Z,5.80
2018-02-09T20:20:10.907Z,7.10
2018-02-09T20:22:39.942Z,6.67
2018-02-09T20:25:09.382Z,7.13
2018-02-09T20:27:38.862Z,5.53
2018-02-09T20:30:08.210Z,5.17
2018-02-09T20:32:39.274Z,6.00
2018-02-09T20:35:09.046Z,6.53
2018-02-09T20:37:39.114Z,6.73
2018-02-09T20:40:09.215Z,5.80
2018-02-09T20:42:37.771Z,7.43
2018-02-09T20:45:06.525Z,4.53
2018-02-09T20:47:35.560Z,6.67
2018-02-09T20:50:04.559Z,7.40
2018-02-09T20:52:35.130Z,6.03
2018-02-09T20:55:04.939Z,5.60
2018-02-09T21:19:47.944Z,6.20
2018-02-09T21:22:17.949Z,6.30
2018-02-09T21:24:46.530Z,6.67
2018-02-09T21:27:16.452Z,5.87
2018-02-09T21:29:45.339Z,6.00
2018-02-09T21:32:14.634Z,7.97
2018-02-09T21:34:44.664Z,6.00
2018-02-09T21:37:15.446Z,5.30
2018-02-09T21:39:45.721Z,5.10
2018-02-09T21:42:15.581Z,5.13
2018-02-09T21:44:44.879Z,5.50
2018-02-09T21:47:13.560Z,4.57
2018-02-09T21:49:42.961Z,5.60
2018-02-09T21:52:12.317Z,6.23
2018-02-09T21:54:41.074Z,5.78
2018-02-09T21:57:11.338Z,6.00
2018-02-09T21:59:41.132Z,5.90
2018-02-09T22:02:11.051Z,5.07
2018-02-09T22:04:40.975Z,6.93
2018-02-09T22:10:08.551Z,6.10
2018-02-09T22:12:37.587Z,5.67
2018-02-09T22:15:06.906Z,5.60
2018-02-09T22:17:36.701Z,5.93
2018-02-09T22:20:05.753Z,7.77
2018-02-09T22:22:35.150Z,4.70
2018-02-09T22:25:05.099Z,5.60
2018-02-09T22:27:33.940Z,5.40
2018-02-09T22:30:03.942Z,5.97
2018-02-09T22:32:32.449Z,7.30
2018-02-09T22:35:02.043Z,5.23
2018-02-09T22:37:30.694Z,4.73
2018-02-09T22:40:00.560Z,5.47
2018-02-09T22:42:29.708Z,5.33
2018-02-09T22:44:59.227Z,6.40
2018-02-09T22:47:28.060Z,5.67
2018-02-09T22:49:57.505Z,6.70
2018-02-09T22:52:27.054Z,6.50
2018-02-09T22:54:55.715Z,7.50
2018-02-09T22:57:26.086Z,6.80
2018-02-09T22:59:55.486Z,5.33
2018-02-09T23:02:24.817Z,5.77
2018-02-09T23:04:53.431Z,5.53
2018-02-09T23:07:22.830Z,5.97
2018-02-09T23:09:51.404Z,6.40
2018-02-09T23:12:21.266Z,5.93
2018-02-09T23:14:52.829Z,5.53
2018-02-09T23:17:21.789Z,6.23
2018-02-09T23:19:51.219Z,5.37
2018-02-09T23:22:19.869Z,5.50
2018-02-09T23:24:49.681Z,6.30
2018-02-09T23:27:19.918Z,5.77
2018-02-09T23:29:48.971Z,5.23
2018-02-09T23:32:18.383Z,7.33
2018-02-09T23:34:47.443Z,13.67
2018-02-09T23:37:17.347Z,6.07
2018-02-09T23:39:47.258Z,7.27
2018-02-09T23:42:16.278Z,6.33
2018-02-09T23:44:45.877Z,6.70
2018-02-09T23:47:15.159Z,5.80
2018-02-09T23:49:44.523Z,6.07
2018-02-09T23:52:13.921Z,6.10
2018-02-09T23:54:44.753Z,6.30
2018-02-09T23:57:13.752Z,6.27
2018-02-09T23:59:43.959Z,5.93
